sensor_id;sensor_type;location;lat;lon;timestamp;pressure;altitude;pressure_sealevel;temperature
76476;BMP280;65308;50.078;14.854;2023-07-24T00:00:14;98555.53;;;23.71
76476;BMP280;65308;50.078;14.854;2023-07-24T00:02:42;98556.59;;;23.76
76476;BMP280;65308;50.078;14.854;2023-07-24T00:05:09;98548.78;;;23.72
76476;BMP280;65308;50.078;14.854;2023-07-24T00:07:36;98552.06;;;23.78
76476;BMP280;65308;50.078;14.854;2023-07-24T00:10:03;98550.78;;;23.72
76476;BMP280;65308;50.078;14.854;2023-07-24T00:12:30;98550.78;;;23.72
76476;BMP280;65308;50.078;14.854;2023-07-24T00:14:57;98553.34;;;23.70
76476;BMP280;65308;50.078;14.854;2023-07-24T00:17:24;98562.44;;;23.72
76476;BMP280;65308;50.078;14.854;2023-07-24T00:19:52;98557.91;;;23.67
76476;BMP280;65308;50.078;14.854;2023-07-24T00:22:18;98553.34;;;23.62
76476;BMP280;65308;50.078;14.854;2023-07-24T00:24:45;98545.16;;;23.54
76476;BMP280;65308;50.078;14.854;2023-07-24T00:27:12;98547.00;;;23.52
76476;BMP280;65308;50.078;14.854;2023-07-24T00:29:39;98549.19;;;23.46
76476;BMP280;65308;50.078;14.854;2023-07-24T00:32:06;98546.84;;;23.42
76476;BMP280;65308;50.078;14.854;2023-07-24T00:34:33;98541.22;;;23.32
76476;BMP280;65308;50.078;14.854;2023-07-24T00:37:01;98538.13;;;23.21
76476;BMP280;65308;50.078;14.854;2023-07-24T00:39:27;98541.00;;;23.15
76476;BMP280;65308;50.078;14.854;2023-07-24T00:41:54;98541.38;;;23.19
76476;BMP280;65308;50.078;14.854;2023-07-24T00:44:21;98539.19;;;23.10
76476;BMP280;65308;50.078;14.854;2023-07-24T00:46:48;98538.09;;;23.05
76476;BMP280;65308;50.078;14.854;2023-07-24T00:49:15;98539.94;;;23.03
76476;BMP280;65308;50.078;14.854;2023-07-24T00:51:42;98542.44;;;23.01
76476;BMP280;65308;50.078;14.854;2023-07-24T00:54:11;98541.03;;;23.00
76476;BMP280;65308;50.078;14.854;2023-07-24T00:56:38;98541.03;;;23.00
76476;BMP280;65308;50.078;14.854;2023-07-24T00:59:04;98532.25;;;22.94
76476;BMP280;65308;50.078;14.854;2023-07-24T01:01:31;98527.72;;;22.96
76476;BMP280;65308;50.078;14.854;2023-07-24T01:03:58;98529.00;;;22.95
76476;BMP280;65308;50.078;14.854;2023-07-24T01:06:25;98533.19;;;22.89
76476;BMP280;65308;50.078;14.854;2023-07-24T01:08:51;98535.38;;;22.90
76476;BMP280;65308;50.078;14.854;2023-07-24T01:11:23;98530.44;;;22.81
76476;BMP280;65308;50.078;14.854;2023-07-24T01:13:58;98534.09;;;22.83
76476;BMP280;65308;50.078;14.854;2023-07-24T01:16:33;98531.16;;;22.74
76476;BMP280;65308;50.078;14.854;2023-07-24T01:19:04;98526.78;;;22.63
76476;BMP280;65308;50.078;14.854;2023-07-24T01:21:44;98529.47;;;22.48
76476;BMP280;65308;50.078;14.854;2023-07-24T01:24:20;98533.63;;;22.41
76476;BMP280;65308;50.078;14.854;2023-07-24T01:26:51;98534.72;;;22.31
76476;BMP280;65308;50.078;14.854;2023-07-24T01:29:18;98531.31;;;22.09
76476;BMP280;65308;50.078;14.854;2023-07-24T01:31:45;98533.13;;;22.07
76476;BMP280;65308;50.078;14.854;2023-07-24T01:34:12;98530.75;;;22.03
76476;BMP280;65308;50.078;14.854;2023-07-24T01:36:38;98532.03;;;22.02
76476;BMP280;65308;50.078;14.854;2023-07-24T01:39:06;98530.53;;;22.01
76476;BMP280;65308;50.078;14.854;2023-07-24T01:41:32;98523.44;;;21.90
76476;BMP280;65308;50.078;14.854;2023-07-24T01:44:00;98532.16;;;21.89
76476;BMP280;65308;50.078;14.854;2023-07-24T01:46:27;98526.84;;;21.83
76476;BMP280;65308;50.078;14.854;2023-07-24T01:48:53;98530.41;;;21.78
76476;BMP280;65308;50.078;14.854;2023-07-24T01:51:20;98522.41;;;21.72
76476;BMP280;65308;50.078;14.854;2023-07-24T01:53:47;98522.88;;;21.63
76476;BMP280;65308;50.078;14.854;2023-07-24T01:56:13;98525.63;;;21.63
76476;BMP280;65308;50.078;14.854;2023-07-24T01:58:40;98519.53;;;21.49
76476;BMP280;65308;50.078;14.854;2023-07-24T02:01:08;98509.63;;;21.60
76476;BMP280;65308;50.078;14.854;2023-07-24T02:03:34;98502.28;;;21.47
76476;BMP280;65308;50.078;14.854;2023-07-24T02:06:01;98498.84;;;21.46
76476;BMP280;65308;50.078;14.854;2023-07-24T02:08:27;98500.84;;;21.46
76476;BMP280;65308;50.078;14.854;2023-07-24T02:10:54;98488.69;;;21.47
76476;BMP280;65308;50.078;14.854;2023-07-24T02:13:21;98501.88;;;21.43
76476;BMP280;65308;50.078;14.854;2023-07-24T02:15:47;98503.50;;;21.38
76476;BMP280;65308;50.078;14.854;2023-07-24T02:18:15;98500.50;;;21.29
76476;BMP280;65308;50.078;14.854;2023-07-24T02:20:48;98492.91;;;21.27
76476;BMP280;65308;50.078;14.854;2023-07-24T02:23:15;98482.53;;;21.26
76476;BMP280;65308;50.078;14.854;2023-07-24T02:25:41;98475.47;;;21.30
76476;BMP280;65308;50.078;14.854;2023-07-24T02:28:08;98463.69;;;21.28
76476;BMP280;65308;50.078;14.854;2023-07-24T02:30:37;98473.13;;;21.27
76476;BMP280;65308;50.078;14.854;2023-07-24T02:33:04;98479.28;;;21.27
76476;BMP280;65308;50.078;14.854;2023-07-24T02:35:38;98478.41;;;21.32
76476;BMP280;65308;50.078;14.854;2023-07-24T02:38:04;98484.91;;;21.29
76476;BMP280;65308;50.078;14.854;2023-07-24T02:40:31;98483.13;;;21.32
76476;BMP280;65308;50.078;14.854;2023-07-24T02:42:57;98490.19;;;21.27
76476;BMP280;65308;50.078;14.854;2023-07-24T02:45:24;98502.31;;;21.26
76476;BMP280;65308;50.078;14.854;2023-07-24T02:47:51;98511.38;;;21.29
76476;BMP280;65308;50.078;14.854;2023-07-24T02:50:17;98510.66;;;21.28
76476;BMP280;65308;50.078;14.854;2023-07-24T02:52:45;98518.63;;;21.26
76476;BMP280;65308;50.078;14.854;2023-07-24T02:55:12;98524.16;;;21.13
76476;BMP280;65308;50.078;14.854;2023-07-24T02:57:38;98522.31;;;21.08
76476;BMP280;65308;50.078;14.854;2023-07-24T03:00:06;98521.09;;;21.16
76476;BMP280;65308;50.078;14.854;2023-07-24T03:02:33;98512.63;;;21.20
76476;BMP280;65308;50.078;14.854;2023-07-24T03:04:59;98515.13;;;21.18
76476;BMP280;65308;50.078;14.854;2023-07-24T03:07:26;98521.28;;;21.18
76476;BMP280;65308;50.078;14.854;2023-07-24T03:09:54;98520.13;;;21.27
76476;BMP280;65308;50.078;14.854;2023-07-24T03:12:20;98522.44;;;21.23
76476;BMP280;65308;50.078;14.854;2023-07-24T03:14:47;98528.59;;;21.24
76476;BMP280;65308;50.078;14.854;2023-07-24T03:17:14;98528.31;;;21.14
76476;BMP280;65308;50.078;14.854;2023-07-24T03:19:40;98538.81;;;21.10
76476;BMP280;65308;50.078;14.854;2023-07-24T03:22:07;98542.06;;;21.08
76476;BMP280;65308;50.078;14.854;2023-07-24T03:24:34;98539.22;;;21.14
76476;BMP280;65308;50.078;14.854;2023-07-24T03:27:03;98538.44;;;21.27
76476;BMP280;65308;50.078;14.854;2023-07-24T03:29:30;98551.88;;;21.32
76476;BMP280;65308;50.078;14.854;2023-07-24T03:31:56;98549.84;;;21.46
76476;BMP280;65308;50.078;14.854;2023-07-24T03:34:23;98548.81;;;21.57
76476;BMP280;65308;50.078;14.854;2023-07-24T03:36:50;98556.91;;;21.70
76476;BMP280;65308;50.078;14.854;2023-07-24T03:39:16;98545.81;;;21.96
76476;BMP280;65308;50.078;14.854;2023-07-24T03:41:43;98537.03;;;22.26
76476;BMP280;65308;50.078;14.854;2023-07-24T03:44:11;98538.00;;;22.44
76476;BMP280;65308;50.078;14.854;2023-07-24T03:46:37;98545.28;;;22.49
76476;BMP280;65308;50.078;14.854;2023-07-24T03:49:04;98537.84;;;22.57
76476;BMP280;65308;50.078;14.854;2023-07-24T03:51:31;98530.06;;;22.69
76476;BMP280;65308;50.078;14.854;2023-07-24T03:53:58;98529.72;;;22.73
76476;BMP280;65308;50.078;14.854;2023-07-24T03:56:25;98528.63;;;22.76
76476;BMP280;65308;50.078;14.854;2023-07-24T03:58:52;98517.91;;;22.78
76476;BMP280;65308;50.078;14.854;2023-07-24T04:01:20;98484.94;;;22.61
76476;BMP280;65308;50.078;14.854;2023-07-24T04:03:47;98511.50;;;22.60
76476;BMP280;65308;50.078;14.854;2023-07-24T04:06:14;98511.50;;;22.60
76476;BMP280;65308;50.078;14.854;2023-07-24T04:08:40;98513.69;;;22.62
76476;BMP280;65308;50.078;14.854;2023-07-24T04:11:07;98508.44;;;22.64
76476;BMP280;65308;50.078;14.854;2023-07-24T04:13:34;98503.69;;;22.56
76476;BMP280;65308;50.078;14.854;2023-07-24T04:16:00;98490.97;;;22.59
76476;BMP280;65308;50.078;14.854;2023-07-24T04:18:28;98480.56;;;22.57
76476;BMP280;65308;50.078;14.854;2023-07-24T04:20:55;98488.59;;;22.55
76476;BMP280;65308;50.078;14.854;2023-07-24T04:23:22;98476.94;;;22.55
76476;BMP280;65308;50.078;14.854;2023-07-24T04:25:49;98486.41;;;22.54
76476;BMP280;65308;50.078;14.854;2023-07-24T04:28:16;98490.19;;;22.51
76476;BMP280;65308;50.078;14.854;2023-07-24T04:30:42;98464.56;;;22.46
76476;BMP280;65308;50.078;14.854;2023-07-24T04:33:09;98448.72;;;22.37
76476;BMP280;65308;50.078;14.854;2023-07-24T04:35:37;98432.94;;;22.43
76476;BMP280;65308;50.078;14.854;2023-07-24T04:38:04;98452.91;;;22.38
76476;BMP280;65308;50.078;14.854;2023-07-24T04:40:30;98462.19;;;22.35
76476;BMP280;65308;50.078;14.854;2023-07-24T04:42:57;98456.72;;;22.35
76476;BMP280;65308;50.078;14.854;2023-07-24T04:45:24;98443.28;;;22.37
76476;BMP280;65308;50.078;14.854;2023-07-24T04:47:51;98444.94;;;22.40
76476;BMP280;65308;50.078;14.854;2023-07-24T04:50:18;98430.38;;;22.30
76476;BMP280;65308;50.078;14.854;2023-07-24T04:52:46;98437.44;;;22.25
76476;BMP280;65308;50.078;14.854;2023-07-24T04:55:13;98432.84;;;22.05
76476;BMP280;65308;50.078;14.854;2023-07-24T04:57:40;98434.06;;;21.89
76476;BMP280;65308;50.078;14.854;2023-07-24T05:00:07;98428.81;;;21.91
76476;BMP280;65308;50.078;14.854;2023-07-24T05:02:34;98433.00;;;21.56
76476;BMP280;65308;50.078;14.854;2023-07-24T05:05:01;98443.00;;;21.61
76476;BMP280;65308;50.078;14.854;2023-07-24T05:07:27;98439.59;;;21.68
76476;BMP280;65308;50.078;14.854;2023-07-24T05:09:55;98461.41;;;21.75
76476;BMP280;65308;50.078;14.854;2023-07-24T05:12:22;98447.69;;;21.89
76476;BMP280;65308;50.078;14.854;2023-07-24T05:14:49;98437.72;;;21.99
76476;BMP280;65308;50.078;14.854;2023-07-24T05:17:15;98428.88;;;22.14
76476;BMP280;65308;50.078;14.854;2023-07-24T05:19:42;98435.47;;;22.26
76476;BMP280;65308;50.078;14.854;2023-07-24T05:22:09;98432.94;;;22.36
76476;BMP280;65308;50.078;14.854;2023-07-24T05:24:35;98438.41;;;22.51
76476;BMP280;65308;50.078;14.854;2023-07-24T05:27:04;98424.59;;;22.64
76476;BMP280;65308;50.078;14.854;2023-07-24T05:29:31;98434.97;;;22.81
76476;BMP280;65308;50.078;14.854;2023-07-24T05:31:58;98443.13;;;22.96
76476;BMP280;65308;50.078;14.854;2023-07-24T05:34:25;98451.88;;;23.18
76476;BMP280;65308;50.078;14.854;2023-07-24T05:36:52;98448.56;;;23.34
76476;BMP280;65308;50.078;14.854;2023-07-24T05:39:18;98449.97;;;23.51
76476;BMP280;65308;50.078;14.854;2023-07-24T05:41:47;98437.38;;;23.63
76476;BMP280;65308;50.078;14.854;2023-07-24T05:44:15;98433.88;;;23.70
76476;BMP280;65308;50.078;14.854;2023-07-24T05:46:41;98434.09;;;23.97
76476;BMP280;65308;50.078;14.854;2023-07-24T05:49:08;98430.09;;;24.31
76476;BMP280;65308;50.078;14.854;2023-07-24T05:51:34;98430.84;;;24.73
76476;BMP280;65308;50.078;14.854;2023-07-24T05:54:01;98422.59;;;24.98
76476;BMP280;65308;50.078;14.854;2023-07-24T05:56:28;98424.31;;;25.28
76476;BMP280;65308;50.078;14.854;2023-07-24T05:58:55;98421.13;;;25.49
76476;BMP280;65308;50.078;14.854;2023-07-24T06:01:23;98421.56;;;25.73
76476;BMP280;65308;50.078;14.854;2023-07-24T06:03:49;98430.75;;;25.95
76476;BMP280;65308;50.078;14.854;2023-07-24T06:06:16;98425.19;;;26.12
76476;BMP280;65308;50.078;14.854;2023-07-24T06:08:42;98423.31;;;26.61
76476;BMP280;65308;50.078;14.854;2023-07-24T06:11:09;98420.75;;;27.11
76476;BMP280;65308;50.078;14.854;2023-07-24T06:13:36;98411.00;;;27.58
76476;BMP280;65308;50.078;14.854;2023-07-24T06:16:03;98410.31;;;27.89
76476;BMP280;65308;50.078;14.854;2023-07-24T06:18:31;98412.38;;;28.19
76476;BMP280;65308;50.078;14.854;2023-07-24T06:20:57;98412.94;;;28.49
76476;BMP280;65308;50.078;14.854;2023-07-24T06:23:24;98396.66;;;28.53
76476;BMP280;65308;50.078;14.854;2023-07-24T06:25:51;98394.16;;;28.78
76476;BMP280;65308;50.078;14.854;2023-07-24T06:28:18;98399.91;;;28.82
76476;BMP280;65308;50.078;14.854;2023-07-24T06:30:44;98406.13;;;28.83
76476;BMP280;65308;50.078;14.854;2023-07-24T06:33:11;98405.47;;;28.94
76476;BMP280;65308;50.078;14.854;2023-07-24T06:35:39;98422.66;;;29.16
76476;BMP280;65308;50.078;14.854;2023-07-24T06:38:06;98415.41;;;29.32
76476;BMP280;65308;50.078;14.854;2023-07-24T06:40:34;98418.03;;;29.42
76476;BMP280;65308;50.078;14.854;2023-07-24T06:43:00;98412.78;;;29.46
76476;BMP280;65308;50.078;14.854;2023-07-24T06:45:27;98408.00;;;29.58
76476;BMP280;65308;50.078;14.854;2023-07-24T06:47:54;98414.13;;;29.57
76476;BMP280;65308;50.078;14.854;2023-07-24T06:50:20;98415.56;;;29.58
76476;BMP280;65308;50.078;14.854;2023-07-24T06:52:49;98423.56;;;29.54
76476;BMP280;65308;50.078;14.854;2023-07-24T06:55:17;98424.31;;;29.54
76476;BMP280;65308;50.078;14.854;2023-07-24T06:57:43;98425.47;;;29.51
76476;BMP280;65308;50.078;14.854;2023-07-24T07:00:11;98416.97;;;29.47
76476;BMP280;65308;50.078;14.854;2023-07-24T07:02:38;98428.00;;;29.35
76476;BMP280;65308;50.078;14.854;2023-07-24T07:05:05;98417.44;;;29.32
76476;BMP280;65308;50.078;14.854;2023-07-24T07:07:32;98423.06;;;29.34
76476;BMP280;65308;50.078;14.854;2023-07-24T07:10:00;98423.34;;;29.50
76476;BMP280;65308;50.078;14.854;2023-07-24T07:12:27;98429.59;;;29.62
76476;BMP280;65308;50.078;14.854;2023-07-24T07:14:53;98427.91;;;29.68
76476;BMP280;65308;50.078;14.854;2023-07-24T07:17:20;98431.97;;;29.79
76476;BMP280;65308;50.078;14.854;2023-07-24T07:19:46;98425.53;;;29.98
76476;BMP280;65308;50.078;14.854;2023-07-24T07:22:13;98419.16;;;30.68
76476;BMP280;65308;50.078;14.854;2023-07-24T07:24:40;98419.94;;;30.96
76476;BMP280;65308;50.078;14.854;2023-07-24T07:27:10;98417.44;;;31.52
76476;BMP280;65308;50.078;14.854;2023-07-24T07:29:36;98420.81;;;32.06
76476;BMP280;65308;50.078;14.854;2023-07-24T07:32:03;98412.72;;;32.10
76476;BMP280;65308;50.078;14.854;2023-07-24T07:34:30;98427.59;;;32.03
76476;BMP280;65308;50.078;14.854;2023-07-24T07:36:56;98420.72;;;31.76
76476;BMP280;65308;50.078;14.854;2023-07-24T07:39:23;98412.94;;;31.73
76476;BMP280;65308;50.078;14.854;2023-07-24T07:41:50;98402.81;;;31.77
76476;BMP280;65308;50.078;14.854;2023-07-24T07:44:18;98404.53;;;32.12
76476;BMP280;65308;50.078;14.854;2023-07-24T07:46:44;98408.06;;;32.28
76476;BMP280;65308;50.078;14.854;2023-07-24T07:49:11;98413.53;;;34.51
76476;BMP280;65308;50.078;14.854;2023-07-24T07:51:38;98408.88;;;36.87
76476;BMP280;65308;50.078;14.854;2023-07-24T07:54:04;98410.50;;;39.08
76476;BMP280;65308;50.078;14.854;2023-07-24T07:56:31;98401.81;;;40.87
76476;BMP280;65308;50.078;14.854;2023-07-24T07:58:57;98400.47;;;41.85
76476;BMP280;65308;50.078;14.854;2023-07-24T08:01:25;98379.63;;;42.42
76476;BMP280;65308;50.078;14.854;2023-07-24T08:03:52;98380.28;;;42.19
76476;BMP280;65308;50.078;14.854;2023-07-24T08:06:19;98381.38;;;41.57
76476;BMP280;65308;50.078;14.854;2023-07-24T08:08:47;98378.13;;;41.02
76476;BMP280;65308;50.078;14.854;2023-07-24T08:11:14;98378.34;;;40.58
76476;BMP280;65308;50.078;14.854;2023-07-24T08:13:40;98379.69;;;40.49
76476;BMP280;65308;50.078;14.854;2023-07-24T08:16:12;98383.84;;;42.35
76476;BMP280;65308;50.078;14.854;2023-07-24T08:18:44;98400.53;;;44.26
76476;BMP280;65308;50.078;14.854;2023-07-24T08:21:12;98376.53;;;44.33
76476;BMP280;65308;50.078;14.854;2023-07-24T08:23:38;98361.38;;;43.35
76476;BMP280;65308;50.078;14.854;2023-07-24T08:26:05;98364.25;;;42.98
76476;BMP280;65308;50.078;14.854;2023-07-24T08:28:32;98359.94;;;43.60
76476;BMP280;65308;50.078;14.854;2023-07-24T08:31:00;98359.72;;;45.09
76476;BMP280;65308;50.078;14.854;2023-07-24T08:33:27;98368.41;;;46.58
76476;BMP280;65308;50.078;14.854;2023-07-24T08:36:00;98364.47;;;47.21
76476;BMP280;65308;50.078;14.854;2023-07-24T08:38:27;98356.72;;;47.54
76476;BMP280;65308;50.078;14.854;2023-07-24T08:41:00;98367.03;;;48.61
76476;BMP280;65308;50.078;14.854;2023-07-24T08:43:28;98352.34;;;49.31
76476;BMP280;65308;50.078;14.854;2023-07-24T08:45:55;98333.97;;;50.19
76476;BMP280;65308;50.078;14.854;2023-07-24T08:48:23;98338.94;;;49.02
76476;BMP280;65308;50.078;14.854;2023-07-24T08:50:51;98341.34;;;48.65
76476;BMP280;65308;50.078;14.854;2023-07-24T08:53:21;98307.38;;;47.41
76476;BMP280;65308;50.078;14.854;2023-07-24T08:55:48;98306.63;;;45.83
76476;BMP280;65308;50.078;14.854;2023-07-24T08:58:15;98316.31;;;45.96
76476;BMP280;65308;50.078;14.854;2023-07-24T09:00:41;98311.00;;;45.69
76476;BMP280;65308;50.078;14.854;2023-07-24T09:03:08;98296.13;;;44.36
76476;BMP280;65308;50.078;14.854;2023-07-24T09:05:35;98303.69;;;43.36
76476;BMP280;65308;50.078;14.854;2023-07-24T09:08:02;98309.28;;;42.10
76476;BMP280;65308;50.078;14.854;2023-07-24T09:10:30;98300.78;;;40.83
76476;BMP280;65308;50.078;14.854;2023-07-24T09:12:56;98299.91;;;40.00
76476;BMP280;65308;50.078;14.854;2023-07-24T09:15:23;98294.31;;;40.00
76476;BMP280;65308;50.078;14.854;2023-07-24T09:17:50;98288.91;;;40.16
76476;BMP280;65308;50.078;14.854;2023-07-24T09:20:18;98290.00;;;40.55
76476;BMP280;65308;50.078;14.854;2023-07-24T09:22:48;98277.16;;;41.10
76476;BMP280;65308;50.078;14.854;2023-07-24T09:25:15;98274.00;;;41.68
76476;BMP280;65308;50.078;14.854;2023-07-24T09:27:44;98284.56;;;41.82
76476;BMP280;65308;50.078;14.854;2023-07-24T09:30:12;98288.84;;;41.95
76476;BMP280;65308;50.078;14.854;2023-07-24T09:32:40;98283.97;;;42.22
76476;BMP280;65308;50.078;14.854;2023-07-24T09:35:16;98286.84;;;42.49
76476;BMP280;65308;50.078;14.854;2023-07-24T09:37:43;98278.41;;;42.81
76476;BMP280;65308;50.078;14.854;2023-07-24T09:40:11;98286.78;;;43.36
76476;BMP280;65308;50.078;14.854;2023-07-24T09:42:38;98285.91;;;43.76
76476;BMP280;65308;50.078;14.854;2023-07-24T09:45:09;98292.19;;;43.95
76476;BMP280;65308;50.078;14.854;2023-07-24T09:47:36;98274.41;;;44.18
76476;BMP280;65308;50.078;14.854;2023-07-24T09:50:03;98268.66;;;44.37
76476;BMP280;65308;50.078;14.854;2023-07-24T09:52:30;98268.53;;;44.51
76476;BMP280;65308;50.078;14.854;2023-07-24T09:55:08;98248.78;;;44.51
76476;BMP280;65308;50.078;14.854;2023-07-24T09:57:37;98268.63;;;44.39
76476;BMP280;65308;50.078;14.854;2023-07-24T10:00:05;98262.91;;;44.47
76476;BMP280;65308;50.078;14.854;2023-07-24T10:02:35;98256.13;;;44.11
76476;BMP280;65308;50.078;14.854;2023-07-24T10:05:02;98270.47;;;43.69
76476;BMP280;65308;50.078;14.854;2023-07-24T10:07:31;98261.50;;;43.09
76476;BMP280;65308;50.078;14.854;2023-07-24T10:09:57;98253.09;;;42.67
76476;BMP280;65308;50.078;14.854;2023-07-24T10:12:25;98258.63;;;42.08
76476;BMP280;65308;50.078;14.854;2023-07-24T10:14:53;98245.84;;;41.60
76476;BMP280;65308;50.078;14.854;2023-07-24T10:17:38;98251.09;;;40.93
76476;BMP280;65308;50.078;14.854;2023-07-24T10:20:06;98240.84;;;40.46
76476;BMP280;65308;50.078;14.854;2023-07-24T10:22:34;98242.47;;;40.01
76476;BMP280;65308;50.078;14.854;2023-07-24T10:25:01;98243.69;;;39.31
76476;BMP280;65308;50.078;14.854;2023-07-24T10:27:27;98241.59;;;38.87
76476;BMP280;65308;50.078;14.854;2023-07-24T10:30:01;98237.44;;;38.50
76476;BMP280;65308;50.078;14.854;2023-07-24T10:32:28;98245.81;;;38.12
76476;BMP280;65308;50.078;14.854;2023-07-24T10:35:06;98239.16;;;37.62
76476;BMP280;65308;50.078;14.854;2023-07-24T10:37:35;98238.75;;;37.43
76476;BMP280;65308;50.078;14.854;2023-07-24T10:40:02;98246.78;;;36.99
76476;BMP280;65308;50.078;14.854;2023-07-24T10:42:29;98237.31;;;36.31
76476;BMP280;65308;50.078;14.854;2023-07-24T10:45:06;98242.00;;;36.00
76476;BMP280;65308;50.078;14.854;2023-07-24T10:47:33;98235.66;;;35.74
76476;BMP280;65308;50.078;14.854;2023-07-24T10:50:02;98240.16;;;35.63
76476;BMP280;65308;50.078;14.854;2023-07-24T10:52:29;98236.25;;;35.48
76476;BMP280;65308;50.078;14.854;2023-07-24T10:54:56;98226.00;;;35.33
76476;BMP280;65308;50.078;14.854;2023-07-24T10:57:25;98226.38;;;35.02
76476;BMP280;65308;50.078;14.854;2023-07-24T10:59:52;98227.97;;;34.67
76476;BMP280;65308;50.078;14.854;2023-07-24T11:02:19;98238.47;;;34.69
76476;BMP280;65308;50.078;14.854;2023-07-24T11:04:46;98229.28;;;34.64
76476;BMP280;65308;50.078;14.854;2023-07-24T11:07:14;98214.28;;;34.53
76476;BMP280;65308;50.078;14.854;2023-07-24T11:09:41;98210.31;;;34.39
76476;BMP280;65308;50.078;14.854;2023-07-24T11:12:12;98196.25;;;34.35
76476;BMP280;65308;50.078;14.854;2023-07-24T11:14:47;98200.03;;;34.23
76476;BMP280;65308;50.078;14.854;2023-07-24T11:17:13;98182.28;;;33.93
76476;BMP280;65308;50.078;14.854;2023-07-24T11:19:40;98202.13;;;33.85
76476;BMP280;65308;50.078;14.854;2023-07-24T11:22:07;98192.59;;;33.73
76476;BMP280;65308;50.078;14.854;2023-07-24T11:24:42;98184.06;;;33.68
76476;BMP280;65308;50.078;14.854;2023-07-24T11:27:10;98167.22;;;33.62
76476;BMP280;65308;50.078;14.854;2023-07-24T11:29:38;98176.66;;;33.55
76476;BMP280;65308;50.078;14.854;2023-07-24T11:32:05;98157.16;;;33.53
76476;BMP280;65308;50.078;14.854;2023-07-24T11:34:32;98164.13;;;33.54
76476;BMP280;65308;50.078;14.854;2023-07-24T11:36:59;98152.69;;;33.82
76476;BMP280;65308;50.078;14.854;2023-07-24T11:39:25;98148.41;;;33.79
76476;BMP280;65308;50.078;14.854;2023-07-24T11:41:53;98151.69;;;33.73
76476;BMP280;65308;50.078;14.854;2023-07-24T11:44:24;98149.38;;;33.67
76476;BMP280;65308;50.078;14.854;2023-07-24T11:46:51;98138.94;;;33.48
76476;BMP280;65308;50.078;14.854;2023-07-24T11:49:21;98124.91;;;33.44
76476;BMP280;65308;50.078;14.854;2023-07-24T11:51:49;98117.94;;;33.25
76476;BMP280;65308;50.078;14.854;2023-07-24T11:54:16;98117.41;;;32.95
76476;BMP280;65308;50.078;14.854;2023-07-24T11:56:43;98114.38;;;32.71
76476;BMP280;65308;50.078;14.854;2023-07-24T11:59:12;98110.81;;;32.69
76476;BMP280;65308;50.078;14.854;2023-07-24T12:01:39;98111.44;;;32.52
76476;BMP280;65308;50.078;14.854;2023-07-24T12:04:06;98116.44;;;32.55
76476;BMP280;65308;50.078;14.854;2023-07-24T12:06:32;98114.56;;;32.60
76476;BMP280;65308;50.078;14.854;2023-07-24T12:09:03;98122.03;;;32.39
76476;BMP280;65308;50.078;14.854;2023-07-24T12:11:31;98110.13;;;32.37
76476;BMP280;65308;50.078;14.854;2023-07-24T12:13:58;98121.63;;;32.63
76476;BMP280;65308;50.078;14.854;2023-07-24T12:16:27;98101.66;;;32.82
76476;BMP280;65308;50.078;14.854;2023-07-24T12:18:54;98102.22;;;32.96
76476;BMP280;65308;50.078;14.854;2023-07-24T12:21:21;98091.78;;;32.95
76476;BMP280;65308;50.078;14.854;2023-07-24T12:23:47;98090.75;;;33.04
76476;BMP280;65308;50.078;14.854;2023-07-24T12:26:14;98090.84;;;33.06
76476;BMP280;65308;50.078;14.854;2023-07-24T12:28:41;98084.75;;;33.10
76476;BMP280;65308;50.078;14.854;2023-07-24T12:31:07;98094.88;;;33.21
76476;BMP280;65308;50.078;14.854;2023-07-24T12:33:35;98101.47;;;33.29
76476;BMP280;65308;50.078;14.854;2023-07-24T12:36:02;98094.19;;;33.20
76476;BMP280;65308;50.078;14.854;2023-07-24T12:38:29;98092.19;;;32.87
76476;BMP280;65308;50.078;14.854;2023-07-24T12:40:56;98081.59;;;32.66
76476;BMP280;65308;50.078;14.854;2023-07-24T12:43:22;98073.69;;;32.42
76476;BMP280;65308;50.078;14.854;2023-07-24T12:45:49;98064.50;;;32.38
76476;BMP280;65308;50.078;14.854;2023-07-24T12:48:16;98063.97;;;32.26
76476;BMP280;65308;50.078;14.854;2023-07-24T12:50:44;98073.88;;;32.31
76476;BMP280;65308;50.078;14.854;2023-07-24T12:53:11;98062.91;;;32.33
76476;BMP280;65308;50.078;14.854;2023-07-24T12:55:38;98052.84;;;32.41
76476;BMP280;65308;50.078;14.854;2023-07-24T12:58:04;98040.38;;;32.40
76476;BMP280;65308;50.078;14.854;2023-07-24T13:00:31;98033.75;;;32.32
76476;BMP280;65308;50.078;14.854;2023-07-24T13:02:58;98029.34;;;32.09
76476;BMP280;65308;50.078;14.854;2023-07-24T13:05:25;98048.16;;;31.97
76476;BMP280;65308;50.078;14.854;2023-07-24T13:07:53;98059.00;;;31.91
76476;BMP280;65308;50.078;14.854;2023-07-24T13:10:19;98063.00;;;31.88
76476;BMP280;65308;50.078;14.854;2023-07-24T13:12:46;98063.16;;;31.92
76476;BMP280;65308;50.078;14.854;2023-07-24T13:15:12;98054.84;;;31.92
76476;BMP280;65308;50.078;14.854;2023-07-24T13:17:39;98052.88;;;31.94
76476;BMP280;65308;50.078;14.854;2023-07-24T13:20:07;98049.25;;;32.05
76476;BMP280;65308;50.078;14.854;2023-07-24T13:22:34;98064.50;;;32.22
76476;BMP280;65308;50.078;14.854;2023-07-24T13:25:03;98062.41;;;32.38
76476;BMP280;65308;50.078;14.854;2023-07-24T13:27:31;98066.50;;;32.53
76476;BMP280;65308;50.078;14.854;2023-07-24T13:29:58;98064.09;;;32.61
76476;BMP280;65308;50.078;14.854;2023-07-24T13:32:25;98048.91;;;32.80
76476;BMP280;65308;50.078;14.854;2023-07-24T13:34:52;98050.91;;;32.95
76476;BMP280;65308;50.078;14.854;2023-07-24T13:37:18;98047.19;;;33.06
76476;BMP280;65308;50.078;14.854;2023-07-24T13:39:45;98040.91;;;33.24
76476;BMP280;65308;50.078;14.854;2023-07-24T13:42:14;98032.03;;;33.45
76476;BMP280;65308;50.078;14.854;2023-07-24T13:44:40;98020.38;;;33.68
76476;BMP280;65308;50.078;14.854;2023-07-24T13:47:07;98021.34;;;33.75
76476;BMP280;65308;50.078;14.854;2023-07-24T13:49:34;98020.91;;;33.83
76476;BMP280;65308;50.078;14.854;2023-07-24T13:52:00;98016.94;;;33.88
76476;BMP280;65308;50.078;14.854;2023-07-24T13:54:27;98022.50;;;33.88
76476;BMP280;65308;50.078;14.854;2023-07-24T13:56:54;98012.38;;;33.77